Estación Meteorológica Peña el Pijo (Robertgarden) [ 01/16/21 21:48:31 CET ]

Fecha Hora Presion(HPa) Temp (°C) Humedad % Rocio (°C) Viento ( m/s) Direccion Lluvia 1Hora(mm) Lluvia 24H(mm) LLuvia Total(mm)
2021-Jan-16 01:09:15 1012.500 -1.3 63 -7.5 - N     89.61
2021-Jan-16 02:14:05 1012.100 -1.4 64 -7.4 - N     89.61
2021-Jan-16 03:10:09 1012.000 -1.1 62 -7.5 - N     89.61
2021-Jan-16 04:09:56 1011.900 -1.3 64 -7.3 - N     89.61
2021-Jan-16 05:09:35 1011.700 -1.9 66 -7.4 - N     89.61
2021-Jan-16 06:09:41 1011.800 -2.6 71 -7.1 - N     89.61
2021-Jan-16 07:09:13 1012.200 -3.2 74 -7.2 - N     89.61
2021-Jan-16 08:09:33 1012.100 -3.1 74 -7.1 - N     89.61
2021-Jan-16 09:09:14 1012.600 -3.5 75 -7.3 - N     89.61
2021-Jan-16 10:09:34 1013.300 3.4 63 -3.0 - N     89.61
2021-Jan-16 11:09:11 1013.700 8.1 45 -3.2 - N     89.61
2021-Jan-16 12:09:46 1014.000 10.4 33 -5.3 - N     89.61
2021-Jan-16 13:09:35 1013.800 10.5 29 -6.9 - N     89.61
2021-Jan-16 14:09:17 1013.300 11.3 28 -6.7 - N     89.61
2021-Jan-16 15:09:50 1013.200 11.4 26 -7.6 - N     89.61
2021-Jan-16 16:09:47 1013.500 9.4 32 -6.5 - N     89.61
2021-Jan-16 17:09:48 1013.800 7.5 39 -5.6 - N     89.61
2021-Jan-16 18:09:21 1014.400 5.1 50 -4.5 - N     89.61
2021-Jan-16 19:09:31 1015.000 2.4 59 -4.8 - N     89.61
2021-Jan-16 20:09:27 1015.400 0.6 65 -5.3 - N     89.61
2021-Jan-16 21:09:34 1015.900 0.2 67 -5.2 - N     89.61

Temperatura Máxima:11°    Temperatura Mínima:-3°
Presión Máxima:1015.900 Hpa    Presión Mínima:1011.700 Hpa


Volver